KMFV/MFV METAR and TAF weather

Enter ICAO airport designator
Station Type Date Time Source
KMFV METAR 2020/07/10 21:15 UTC NOAA

KMFV 102115Z AUTO 31005KT 10SM CLR 32/M04 A2978 RMK AO2 T03151036


Station Type Date Time Source
KMFV Decoded METAR 2020/07/10 21:15 UTC NOAA

Melfa / Accomack Airport, VA, United States (KMFV) 37-39N 075-46W
Jul 10, 2020 - 05:15 PM EDT / 2020.07.10 2115 UTC
Wind: from the NW (310 degrees) at 6 MPH (5 KT):0
Visibility: 10 mile(s):0
Sky conditions: clear
Temperature: 88.7 F (31.5 C)
Dew Point: 25.5 F (-3.6 C)
Relative Humidity: 10%
Pressure (altimeter): 29.78 in. Hg (1008 hPa)
ob: KMFV 102115Z AUTO 31005KT 10SM CLR 32/M04 A2978 RMK AO2 T03151036
cycle: 21

Station Type Date Time Source
KMFV TAF UTC NOAA

Error!

Example: see airport list